Time;durP1;ratioP1;P1;durP2;ratioP2;P2;SDS_P1;SDS_P2;PMS_P1;PMS_P2;Temp;Humidity;BMP_temperature;BMP_pressure;BME280_temperature;BME280_humidity;BME280_pressure;Samples;Min_cycle;Max_cycle;Signal;HPM_P1;HPM_P2
2023/07/03 00:02:10;;;;;;;8.45;7.03;;;20.10;99.90;;;;;;5069504;28;20237;-66
2023/07/03 00:04:38;;;;;;;10.38;7.38;;;20.10;99.90;;;;;;5069897;28;20246;-68
2023/07/03 00:07:06;;;;;;;7.82;6.65;;;20.10;99.90;;;;;;5069137;28;20207;-67
2023/07/03 00:09:33;;;;;;;8.05;6.90;;;20.10;99.90;;;;;;5069485;28;20249;-68
2023/07/03 00:12:00;;;;;;;7.78;6.97;;;20.10;99.90;;;;;;5073040;28;20628;-69
2023/07/03 00:14:27;;;;;;;7.65;6.30;;;20.10;99.90;;;;;;5073679;28;20271;-68
2023/07/03 00:16:55;;;;;;;8.38;7.07;;;20.20;99.90;;;;;;5074308;28;20210;-67
2023/07/03 00:19:26;;;;;;;8.70;7.72;;;20.30;99.90;;;;;;5073088;28;20719;-73
2023/07/03 00:21:59;;;;;;;9.32;6.65;;;20.20;99.90;;;;;;5073335;28;20271;-77
2023/07/03 00:24:25;;;;;;;13.07;7.40;;;20.20;99.90;;;;;;5072503;28;20199;-67
2023/07/03 00:26:52;;;;;;;8.25;6.72;;;20.30;99.90;;;;;;5073376;28;20288;-69
2023/07/03 00:29:19;;;;;;;10.27;7.10;;;20.40;99.90;;;;;;5072528;28;20250;-80
2023/07/03 00:31:46;;;;;;;7.63;6.47;;;20.40;99.90;;;;;;5072976;28;20240;-78
2023/07/03 00:34:13;;;;;;;6.93;6.07;;;20.40;99.90;;;;;;5072484;28;20296;-68
2023/07/03 00:36:40;;;;;;;9.88;6.75;;;20.30;99.90;;;;;;5070377;28;20234;-69
2023/07/03 00:39:08;;;;;;;7.38;6.68;;;20.20;99.90;;;;;;5060703;28;20660;-68
2023/07/03 00:41:35;;;;;;;9.50;7.63;;;20.10;99.90;;;;;;5072511;28;20210;-70
2023/07/03 00:44:02;;;;;;;8.60;7.63;;;20.10;99.90;;;;;;5072822;28;20206;-69
2023/07/03 00:46:29;;;;;;;8.70;7.00;;;20.20;99.90;;;;;;5073115;28;20305;-72
2023/07/03 00:48:56;;;;;;;9.32;7.15;;;20.20;99.90;;;;;;5072973;28;20236;-74
2023/07/03 00:51:23;;;;;;;9.13;7.82;;;20.20;99.90;;;;;;5072290;28;20237;-67
2023/07/03 00:53:50;;;;;;;8.48;7.60;;;20.30;99.90;;;;;;5072129;28;20736;-67
2023/07/03 00:56:18;;;;;;;9.43;7.53;;;20.20;99.90;;;;;;5072453;28;20237;-67
2023/07/03 00:58:45;;;;;;;9.98;7.90;;;20.20;99.90;;;;;;5072443;28;20248;-67
2023/07/03 01:01:19;;;;;;;7.68;6.93;;;20.10;99.90;;;;;;5071957;28;20698;-70
2023/07/03 01:03:52;;;;;;;9.25;7.22;;;20.20;99.90;;;;;;5072131;28;20222;-67
2023/07/03 01:06:24;;;;;;;9.73;7.07;;;20.20;99.90;;;;;;5071832;28;20703;-66
2023/07/03 01:08:55;;;;;;;8.25;7.45;;;20.10;99.90;;;;;;5072323;28;20253;-66
2023/07/03 01:11:24;;;;;;;10.25;9.15;;;20.00;99.90;;;;;;5072111;28;20249;-66
2023/07/03 01:13:55;;;;;;;9.45;8.20;;;20.10;99.90;;;;;;5072083;28;20269;-68
2023/07/03 01:16:22;;;;;;;9.48;8.40;;;20.00;99.90;;;;;;5071930;28;20249;-67
2023/07/03 01:18:52;;;;;;;11.95;7.90;;;19.90;99.90;;;;;;5072030;28;20263;-67
2023/07/03 01:21:23;;;;;;;10.82;7.18;;;20.00;99.90;;;;;;5071054;28;20297;-67
2023/07/03 01:23:56;;;;;;;9.38;8.13;;;19.90;99.90;;;;;;5072159;28;20245;-67
2023/07/03 01:26:26;;;;;;;10.07;7.72;;;20.00;99.90;;;;;;5071626;28;20242;-67
2023/07/03 01:28:58;;;;;;;11.10;7.63;;;20.00;99.90;;;;;;5071920;28;20230;-67
2023/07/03 01:31:28;;;;;;;8.32;6.75;;;20.00;99.90;;;;;;5068889;28;20241;-77
2023/07/03 01:33:58;;;;;;;8.30;7.40;;;19.90;99.90;;;;;;5057742;28;20235;-67
2023/07/03 01:36:25;;;;;;;8.05;7.05;;;19.90;99.90;;;;;;5057422;28;20213;-67
2023/07/03 01:38:54;;;;;;;10.00;7.65;;;19.90;99.90;;;;;;5067988;28;20238;-67
2023/07/03 01:41:22;;;;;;;9.27;7.60;;;19.80;99.90;;;;;;5061502;28;20248;-67
2023/07/03 01:43:50;;;;;;;10.27;7.90;;;19.70;99.90;;;;;;5071270;28;20647;-73
2023/07/03 01:46:17;;;;;;;11.93;8.20;;;19.80;99.90;;;;;;5071483;28;20241;-67
2023/07/03 01:48:44;;;;;;;10.32;8.07;;;19.80;99.90;;;;;;5057365;28;20246;-65
2023/07/03 01:51:31;;;;;;;11.73;7.72;;;19.80;99.90;;;;;;5071037;28;20238;-78
2023/07/03 01:54:07;;;;;;;13.30;7.00;;;19.80;99.90;;;;;;5071264;28;20257;-67
2023/07/03 01:56:38;;;;;;;9.75;7.95;;;19.80;99.90;;;;;;5071474;28;20238;-68
2023/07/03 01:59:11;;;;;;;9.15;7.30;;;19.70;99.90;;;;;;5070934;28;20229;-67
2023/07/03 02:01:45;;;;;;;9.27;7.20;;;19.60;99.90;;;;;;5071129;28;20233;-79
2023/07/03 02:04:20;;;;;;;10.18;7.03;;;19.60;99.90;;;;;;5068709;28;20654;-66
2023/07/03 02:06:48;;;;;;;10.95;8.13;;;19.50;99.90;;;;;;5060160;28;20237;-81
2023/07/03 02:09:15;;;;;;;9.00;7.68;;;19.50;99.90;;;;;;5070795;28;20242;-68
2023/07/03 02:11:45;;;;;;;9.90;7.53;;;19.40;99.90;;;;;;5071112;28;20205;-68
2023/07/03 02:14:14;;;;;;;9.70;7.90;;;19.40;99.90;;;;;;5070828;28;20308;-66
2023/07/03 02:16:41;;;;;;;11.68;7.90;;;19.30;99.90;;;;;;5057295;28;20202;-66
2023/07/03 02:19:09;;;;;;;8.95;6.55;;;19.30;99.90;;;;;;5070452;28;20678;-65
2023/07/03 02:21:36;;;;;;;11.75;7.97;;;19.20;99.90;;;;;;5070690;28;20263;-66
2023/07/03 02:24:04;;;;;;;11.10;8.15;;;19.10;99.90;;;;;;5070755;28;20256;-67
2023/07/03 02:26:31;;;;;;;13.05;8.90;;;19.10;99.90;;;;;;5070908;28;20198;-67
2023/07/03 02:28:57;;;;;;;12.05;6.88;;;19.10;99.90;;;;;;5071259;28;20230;-75
2023/07/03 02:31:26;;;;;;;12.63;8.55;;;19.00;99.90;;;;;;5070319;28;20206;-67
2023/07/03 02:33:53;;;;;;;11.98;8.55;;;18.90;99.90;;;;;;5069489;28;20260;-67
2023/07/03 02:36:19;;;;;;;7.88;6.75;;;18.80;99.90;;;;;;5070738;28;20237;-86
2023/07/03 02:38:46;;;;;;;11.05;8.02;;;18.80;99.90;;;;;;5065652;28;20234;-67
2023/07/03 02:41:13;;;;;;;9.43;7.72;;;18.70;99.90;;;;;;5061560;28;20697;-66
2023/07/03 02:43:40;;;;;;;10.20;7.35;;;18.70;99.90;;;;;;5070566;28;20198;-79
2023/07/03 02:46:08;;;;;;;8.95;7.20;;;18.80;99.90;;;;;;5060687;28;20238;-66
2023/07/03 02:48:36;;;;;;;10.65;8.20;;;18.70;99.90;;;;;;5050170;28;20285;-66
2023/07/03 02:51:03;;;;;;;9.52;7.32;;;18.70;99.90;;;;;;5050379;28;20241;-68
2023/07/03 02:53:30;;;;;;;10.63;8.02;;;18.60;99.90;;;;;;5050205;28;20211;-74
2023/07/03 02:55:57;;;;;;;13.15;9.40;;;18.60;99.90;;;;;;5050453;28;20231;-66
2023/07/03 02:58:25;;;;;;;9.57;7.47;;;18.50;99.90;;;;;;5049834;28;20297;-75
2023/07/03 03:00:54;;;;;;;10.80;8.00;;;18.50;99.90;;;;;;5049992;28;20242;-74
2023/07/03 03:03:21;;;;;;;13.13;8.00;;;18.50;99.90;;;;;;5049865;28;20242;-66
2023/07/03 03:05:49;;;;;;;15.18;9.00;;;18.50;99.90;;;;;;5052473;28;20234;-77
2023/07/03 03:08:16;;;;;;;9.90;7.85;;;18.60;99.90;;;;;;5060199;28;20238;-67
2023/07/03 03:10:44;;;;;;;9.77;7.68;;;18.60;99.90;;;;;;5049918;28;20254;-64
2023/07/03 03:13:11;;;;;;;11.23;8.10;;;18.50;99.90;;;;;;5049680;28;20269;-76
2023/07/03 03:15:38;;;;;;;11.65;7.65;;;18.60;99.90;;;;;;5050229;28;20685;-66
2023/07/03 03:18:05;;;;;;;10.30;7.93;;;18.50;99.90;;;;;;5049919;28;20260;-70
2023/07/03 03:20:32;;;;;;;12.07;9.68;;;18.50;99.90;;;;;;5050575;28;20234;-69
2023/07/03 03:23:00;;;;;;;10.48;7.40;;;18.40;99.90;;;;;;5050201;28;20238;-78
2023/07/03 03:25:27;;;;;;;12.48;8.77;;;18.20;99.90;;;;;;5050365;28;20637;-81
2023/07/03 03:27:54;;;;;;;12.40;8.40;;;18.20;99.90;;;;;;5050751;28;20243;-78
2023/07/03 03:30:21;;;;;;;15.07;8.45;;;18.20;99.90;;;;;;5050308;28;20242;-81
2023/07/03 03:32:48;;;;;;;8.68;7.32;;;18.20;99.90;;;;;;5049874;28;20211;-83
2023/07/03 03:35:15;;;;;;;11.77;8.45;;;18.20;99.90;;;;;;5049756;28;20277;-73
2023/07/03 03:37:42;;;;;;;11.52;7.80;;;18.10;99.90;;;;;;5050315;28;20627;-67
2023/07/03 03:40:11;;;;;;;11.10;7.97;;;18.10;99.90;;;;;;5052088;28;20308;-71
2023/07/03 03:42:38;;;;;;;10.85;7.50;;;18.10;99.90;;;;;;5069954;28;20748;-67
2023/07/03 03:45:06;;;;;;;9.00;8.13;;;18.20;99.90;;;;;;5071823;28;20252;-67
2023/07/03 03:47:33;;;;;;;9.38;8.05;;;18.00;99.90;;;;;;5073870;28;20237;-82
2023/07/03 03:50:00;;;;;;;10.48;8.55;;;18.00;99.90;;;;;;5073855;28;20670;-69
2023/07/03 03:52:27;;;;;;;13.00;8.25;;;18.10;99.90;;;;;;5074065;28;20230;-67
2023/07/03 03:54:54;;;;;;;10.75;7.90;;;18.00;99.90;;;;;;5073583;28;20234;-80
2023/07/03 03:57:22;;;;;;;10.35;7.63;;;17.90;99.90;;;;;;5073244;28;20248;-68
2023/07/03 03:59:49;;;;;;;11.70;8.02;;;18.00;99.90;;;;;;5073922;28;20238;-74
2023/07/03 04:02:17;;;;;;;15.73;8.90;;;18.00;99.90;;;;;;5073206;28;20234;-66
2023/07/03 04:04:44;;;;;;;9.77;7.25;;;17.80;99.90;;;;;;5073630;28;20286;-72
2023/07/03 04:07:11;;;;;;;11.73;7.78;;;17.80;99.90;;;;;;5072958;28;20238;-83
2023/07/03 04:09:38;;;;;;;12.48;9.25;;;17.70;99.90;;;;;;5073759;28;20381;-83
2023/07/03 04:12:06;;;;;;;12.65;9.25;;;17.80;99.90;;;;;;5073257;28;20267;-81
2023/07/03 04:14:34;;;;;;;12.73;7.70;;;17.70;99.90;;;;;;5073165;28;20679;-67
2023/07/03 04:17:02;;;;;;;9.57;8.60;;;17.80;99.90;;;;;;5073725;28;20246;-80
2023/07/03 04:19:30;;;;;;;10.75;9.13;;;17.70;99.90;;;;;;5073519;28;20211;-67
2023/07/03 04:21:56;;;;;;;12.43;8.50;;;17.70;99.90;;;;;;5073496;28;20233;-66
2023/07/03 04:24:24;;;;;;;13.23;9.18;;;17.60;99.90;;;;;;5073161;28;20237;-66
2023/07/03 04:26:54;;;;;;;12.88;10.00;;;17.60;99.90;;;;;;5072941;28;20653;-66
2023/07/03 04:29:22;;;;;;;13.48;8.80;;;17.60;99.90;;;;;;5072920;28;20206;-69
2023/07/03 04:31:50;;;;;;;10.73;7.88;;;17.60;99.90;;;;;;5072907;28;20210;-66
2023/07/03 04:34:17;;;;;;;14.77;8.77;;;17.60;99.90;;;;;;5072290;28;20241;-75
2023/07/03 04:36:45;;;;;;;9.50;7.93;;;17.50;99.90;;;;;;5072740;28;20245;-68
2023/07/03 04:39:11;;;;;;;15.55;8.68;;;17.60;99.90;;;;;;5063893;28;20203;-78
2023/07/03 04:41:38;;;;;;;13.38;8.80;;;17.50;99.90;;;;;;5067412;28;20244;-68
2023/07/03 04:44:06;;;;;;;15.60;9.25;;;17.50;99.90;;;;;;5072373;28;20664;-73
2023/07/03 04:46:33;;;;;;;11.93;8.57;;;17.60;99.90;;;;;;5072813;28;20210;-82
2023/07/03 04:49:03;;;;;;;13.43;8.63;;;17.60;99.90;;;;;;5072502;28;20686;-67
2023/07/03 04:51:30;;;;;;;17.70;8.70;;;17.60;99.90;;;;;;5072617;28;20260;-66
2023/07/03 04:53:59;;;;;;;14.48;9.68;;;17.70;99.90;;;;;;5072784;28;20308;-67
2023/07/03 04:56:26;;;;;;;10.00;7.68;;;17.70;99.90;;;;;;5071616;28;20234;-72
2023/07/03 04:58:53;;;;;;;13.55;8.38;;;17.70;99.90;;;;;;5072116;28;20241;-68
2023/07/03 05:01:20;;;;;;;12.90;8.82;;;17.70;99.90;;;;;;5072018;28;20249;-78
2023/07/03 05:03:47;;;;;;;11.32;8.73;;;17.70;99.90;;;;;;5072725;28;20241;-79
2023/07/03 05:06:15;;;;;;;12.23;7.93;;;17.60;99.90;;;;;;5071806;28;20256;-67
2023/07/03 05:08:42;;;;;;;10.90;7.93;;;17.70;99.90;;;;;;5072617;28;20233;-66
2023/07/03 05:11:09;;;;;;;14.77;9.13;;;17.60;99.90;;;;;;5072077;28;20237;-66
2023/07/03 05:13:36;;;;;;;12.60;9.88;;;17.70;99.90;;;;;;5071724;28;20256;-67
2023/07/03 05:16:03;;;;;;;16.85;9.52;;;17.80;99.90;;;;;;5071651;28;20688;-65
2023/07/03 05:18:30;;;;;;;19.10;9.48;;;17.80;99.90;;;;;;5072100;28;20245;-67
2023/07/03 05:20:56;;;;;;;12.35;8.95;;;17.90;99.90;;;;;;5072433;28;20712;-67
2023/07/03 05:23:25;;;;;;;18.63;10.38;;;17.80;99.90;;;;;;5069521;28;20263;-82
2023/07/03 05:25:52;;;;;;;12.18;9.70;;;17.90;99.90;;;;;;5072283;28;20234;-65
2023/07/03 05:28:19;;;;;;;12.70;9.63;;;17.90;99.90;;;;;;5057919;28;20246;-75
2023/07/03 05:30:45;;;;;;;11.55;7.57;;;18.00;99.90;;;;;;5060167;28;20242;-67
2023/07/03 05:33:12;;;;;;;11.63;8.95;;;18.00;99.90;;;;;;5064036;28;20721;-66
2023/07/03 05:35:39;;;;;;;14.68;9.60;;;18.00;99.90;;;;;;5067176;28;20335;-65
2023/07/03 05:38:06;;;;;;;11.32;8.48;;;18.00;99.90;;;;;;5053938;28;20207;-67
2023/07/03 05:40:34;;;;;;;12.88;9.73;;;18.00;99.90;;;;;;5056725;28;20245;-71
2023/07/03 05:43:01;;;;;;;14.43;9.57;;;18.00;99.90;;;;;;5058047;28;20233;-71
2023/07/03 05:45:29;;;;;;;13.65;8.43;;;18.10;99.90;;;;;;5058338;28;20262;-84
2023/07/03 05:47:56;;;;;;;12.30;8.52;;;18.10;99.90;;;;;;5062124;28;20277;-73
2023/07/03 05:50:23;;;;;;;9.45;7.90;;;18.10;99.90;;;;;;5064589;28;20238;-81
2023/07/03 05:52:49;;;;;;;13.40;8.50;;;18.10;99.90;;;;;;5056023;28;20237;-71
2023/07/03 05:55:16;;;;;;;13.85;9.13;;;18.20;99.90;;;;;;5066104;28;20673;-76
2023/07/03 05:57:45;;;;;;;12.10;8.35;;;18.10;99.90;;;;;;5064976;28;20637;-73
2023/07/03 06:00:13;;;;;;;10.05;8.25;;;18.20;99.90;;;;;;5066561;28;20237;-75
2023/07/03 06:02:41;;;;;;;18.42;10.57;;;18.20;99.90;;;;;;5059671;28;20299;-76
2023/07/03 06:05:09;;;;;;;11.18;8.45;;;18.20;99.90;;;;;;5051567;28;20242;-71
2023/07/03 06:07:36;;;;;;;12.90;8.68;;;18.20;99.90;;;;;;5054991;28;20650;-73
2023/07/03 06:10:03;;;;;;;13.40;9.75;;;18.30;99.90;;;;;;5050478;28;20296;-71
2023/07/03 06:12:30;;;;;;;13.15;8.50;;;18.30;99.90;;;;;;5050812;28;20242;-72
2023/07/03 06:15:00;;;;;;;14.25;8.25;;;18.40;99.90;;;;;;5052326;28;20275;-73
2023/07/03 06:17:28;;;;;;;13.82;9.52;;;18.50;99.90;;;;;;5054456;28;20656;-72
2023/07/03 06:19:56;;;;;;;15.05;9.23;;;18.50;99.90;;;;;;5054901;28;20233;-71
2023/07/03 06:22:23;;;;;;;11.50;9.00;;;18.50;99.90;;;;;;5050567;28;20231;-68
2023/07/03 06:24:50;;;;;;;13.23;8.75;;;18.60;99.90;;;;;;5054962;28;20238;-68
2023/07/03 06:27:17;;;;;;;14.60;9.65;;;18.50;99.90;;;;;;5050194;28;20246;-69
2023/07/03 06:29:44;;;;;;;19.00;9.70;;;18.50;99.90;;;;;;5050292;28;20214;-68
2023/07/03 06:32:13;;;;;;;13.60;8.27;;;18.70;99.90;;;;;;5057743;28;20234;-73
2023/07/03 06:34:40;;;;;;;18.05;10.90;;;18.80;99.90;;;;;;5052279;28;20202;-71
2023/07/03 06:37:07;;;;;;;16.73;9.13;;;18.90;99.90;;;;;;5052435;28;20730;-73
2023/07/03 06:39:37;;;;;;;15.20;9.73;;;18.90;99.90;;;;;;5050667;28;20202;-69
2023/07/03 06:42:05;;;;;;;15.73;9.73;;;19.10;99.90;;;;;;5064469;28;20202;-71
2023/07/03 06:44:32;;;;;;;16.20;11.02;;;19.10;99.90;;;;;;5069948;28;20241;-74
2023/07/03 06:47:00;;;;;;;15.15;9.70;;;19.20;99.90;;;;;;5061927;28;20253;-69
2023/07/03 06:49:29;;;;;;;13.18;9.27;;;19.30;99.90;;;;;;5065837;28;20215;-74
2023/07/03 06:51:57;;;;;;;11.38;7.95;;;19.90;99.90;;;;;;5059009;28;20206;-76
2023/07/03 06:54:24;;;;;;;13.10;9.65;;;19.50;99.90;;;;;;5060184;28;20260;-79
2023/07/03 06:56:51;;;;;;;12.50;8.50;;;19.60;99.90;;;;;;5060046;28;20784;-70
2023/07/03 06:59:18;;;;;;;15.07;8.45;;;19.50;99.90;;;;;;5055979;28;20238;-80
2023/07/03 07:01:45;;;;;;;12.57;9.23;;;19.60;99.90;;;;;;5056699;28;20245;-82
2023/07/03 07:04:12;;;;;;;9.02;7.72;;;19.80;99.90;;;;;;5058880;28;20235;-80
2023/07/03 07:06:41;;;;;;;13.48;8.20;;;19.80;99.90;;;;;;5065384;28;20229;-74
2023/07/03 07:09:07;;;;;;;11.50;8.18;;;19.60;99.90;;;;;;5063016;28;20203;-78
2023/07/03 07:11:36;;;;;;;13.38;9.32;;;19.80;99.90;;;;;;5058538;28;20233;-70
2023/07/03 07:14:05;;;;;;;12.88;7.25;;;19.80;99.90;;;;;;5068093;28;20289;-74
2023/07/03 07:16:35;;;;;;;13.48;7.93;;;19.80;99.90;;;;;;5051539;28;20321;-73
2023/07/03 07:19:04;;;;;;;11.70;8.13;;;19.80;99.90;;;;;;5062510;28;20260;-74
2023/07/03 07:21:33;;;;;;;13.13;6.97;;;20.00;99.90;;;;;;5061240;28;20207;-75
2023/07/03 07:24:11;;;;;;;10.48;8.32;;;20.10;99.90;;;;;;5063369;28;20205;-72
2023/07/03 07:26:38;;;;;;;10.18;7.07;;;20.20;99.90;;;;;;5063529;28;20237;-73
2023/07/03 07:29:05;;;;;;;14.05;8.48;;;20.30;99.90;;;;;;5064032;28;20233;-78
2023/07/03 07:31:36;;;;;;;10.32;7.75;;;20.40;99.90;;;;;;5063568;28;20280;-77
2023/07/03 07:34:04;;;;;;;9.23;6.63;;;20.30;99.90;;;;;;5061534;28;20283;-79
2023/07/03 07:36:31;;;;;;;17.70;7.47;;;20.30;99.90;;;;;;5066057;28;20226;-68
2023/07/03 07:39:01;;;;;;;11.52;6.63;;;20.30;99.90;;;;;;5063808;28;20211;-72
2023/07/03 07:41:29;;;;;;;9.65;6.32;;;20.40;99.90;;;;;;5059710;28;20211;-72
2023/07/03 07:43:58;;;;;;;16.70;7.82;;;20.50;99.90;;;;;;5073315;28;20234;-73
2023/07/03 07:46:28;;;;;;;7.53;6.38;;;20.60;99.90;;;;;;5073789;28;20694;-75
2023/07/03 07:48:56;;;;;;;10.60;6.55;;;20.60;99.90;;;;;;5074124;28;20198;-72
2023/07/03 07:51:24;;;;;;;11.57;6.50;;;21.80;99.90;;;;;;5073764;28;20241;-73
2023/07/03 07:53:51;;;;;;;8.98;6.97;;;22.20;99.90;;;;;;5073582;28;20206;-72
2023/07/03 07:56:19;;;;;;;9.82;5.47;;;22.00;99.90;;;;;;5073335;28;20280;-74
2023/07/03 07:58:46;;;;;;;8.95;5.35;;;21.60;99.90;;;;;;5072850;28;20712;-72
2023/07/03 08:01:14;;;;;;;8.30;4.88;;;21.60;99.90;;;;;;5071541;28;20249;-68
2023/07/03 08:03:42;;;;;;;7.50;4.95;;;21.30;99.90;;;;;;5071677;28;20289;-72
2023/07/03 08:06:10;;;;;;;8.02;5.60;;;21.30;99.90;;;;;;5071205;28;20655;-73
2023/07/03 08:08:37;;;;;;;9.38;7.07;;;21.30;99.90;;;;;;5071541;28;20677;-68
2023/07/03 08:11:06;;;;;;;6.45;4.97;;;22.00;99.90;;;;;;5071954;28;20257;-68
2023/07/03 08:13:36;;;;;;;7.50;4.68;;;22.10;99.90;;;;;;5070994;28;20241;-68
2023/07/03 08:16:03;;;;;;;7.20;5.38;;;21.70;99.90;;;;;;5054616;28;20714;-69
2023/07/03 08:18:31;;;;;;;8.77;6.10;;;21.80;99.90;;;;;;5053348;28;20207;-68
2023/07/03 08:20:58;;;;;;;7.78;4.80;;;21.90;99.90;;;;;;5053486;28;20268;-68
2023/07/03 08:23:25;;;;;;;6.97;5.55;;;21.60;99.90;;;;;;5052879;28;20245;-69
2023/07/03 08:25:54;;;;;;;8.50;5.60;;;21.30;99.90;;;;;;5053168;28;20238;-68
2023/07/03 08:28:22;;;;;;;8.15;5.88;;;21.50;99.90;;;;;;5052844;28;20701;-68
2023/07/03 08:30:50;;;;;;;9.68;5.88;;;21.60;99.90;;;;;;5057984;28;20206;-68
2023/07/03 08:33:17;;;;;;;9.57;5.32;;;22.10;99.90;;;;;;5061800;28;20317;-68
2023/07/03 08:35:45;;;;;;;6.80;5.30;;;22.30;99.90;;;;;;5068198;28;20206;-68
2023/07/03 08:38:12;;;;;;;7.35;4.75;;;22.30;99.90;;;;;;5063889;28;20297;-68
2023/07/03 08:40:39;;;;;;;10.75;6.07;;;22.40;99.90;;;;;;5059735;28;20242;-68
2023/07/03 08:43:09;;;;;;;5.63;5.03;;;22.50;99.90;;;;;;5059634;28;20623;-68
2023/07/03 08:45:39;;;;;;;8.25;4.93;;;22.60;99.90;;;;;;5053688;28;20206;-68
2023/07/03 08:48:10;;;;;;;7.28;4.38;;;23.00;99.90;;;;;;5052957;28;20237;-73
2023/07/03 08:50:38;;;;;;;6.70;4.60;;;23.40;99.90;;;;;;5054755;28;20238;-68
2023/07/03 08:53:07;;;;;;;7.32;5.10;;;23.40;99.90;;;;;;5054237;28;20207;-71
2023/07/03 08:55:40;;;;;;;6.35;4.63;;;23.60;99.90;;;;;;5056852;28;20280;-76
2023/07/03 08:58:08;;;;;;;6.00;4.55;;;24.20;99.90;;;;;;5052528;28;20292;-68
2023/07/03 09:00:41;;;;;;;9.50;4.85;;;24.50;99.90;;;;;;5057836;28;20230;-68
2023/07/03 09:03:17;;;;;;;7.03;5.05;;;24.40;99.90;;;;;;5055214;28;20242;-71
2023/07/03 09:05:53;;;;;;;6.03;5.38;;;24.60;99.90;;;;;;5052534;28;20592;-71
2023/07/03 09:08:28;;;;;;;7.50;5.10;;;25.30;99.90;;;;;;5053195;28;20229;-90
2023/07/03 09:10:56;;;;;;;6.68;5.30;;;26.40;99.90;;;;;;5057447;28;20233;-82
2023/07/03 09:13:27;;;;;;;6.43;5.32;;;27.50;99.90;;;;;;5059527;28;20249;-74
2023/07/03 09:16:00;;;;;;;7.35;5.85;;;27.10;99.90;;;;;;5063315;28;20214;-79
2023/07/03 09:18:42;;;;;;;6.28;5.07;;;27.70;99.90;;;;;;5056698;28;20752;-73
2023/07/03 09:21:09;;;;;;;7.15;5.45;;;26.90;99.90;;;;;;5057707;28;20685;-70
2023/07/03 09:23:42;;;;;;;9.07;5.57;;;25.90;99.90;;;;;;5051792;28;20713;-71
2023/07/03 09:26:17;;;;;;;6.93;5.70;;;25.60;99.90;;;;;;5051985;28;20686;-71
2023/07/03 09:28:45;;;;;;;8.15;4.95;;;25.00;99.90;;;;;;5055396;28;20221;-70
2023/07/03 09:31:12;;;;;;;8.00;5.80;;;25.00;99.90;;;;;;5061912;28;20234;-75
2023/07/03 09:33:41;;;;;;;6.82;5.68;;;25.50;99.90;;;;;;5057632;28;20707;-86
2023/07/03 09:36:23;;;;;;;8.18;7.07;;;26.10;99.90;;;;;;5057201;28;20272;-83
2023/07/03 09:38:50;;;;;;;7.28;5.43;;;26.60;99.90;;;;;;5058601;28;20676;-79
2023/07/03 09:41:24;;;;;;;7.35;5.55;;;28.40;99.90;;;;;;5063941;28;20339;-79
2023/07/03 09:43:51;;;;;;;7.25;5.50;;;30.10;99.90;;;;;;5059342;28;20610;-70
2023/07/03 09:46:19;;;;;;;7.15;6.07;;;33.80;99.90;;;;;;5066500;28;20236;-88
2023/07/03 09:48:48;;;;;;;5.60;4.97;;;37.30;99.90;;;;;;5053544;28;20202;-85
2023/07/03 09:51:24;;;;;;;7.07;4.82;;;37.10;99.90;;;;;;5051611;28;20267;-70
2023/07/03 09:53:52;;;;;;;5.03;4.57;;;35.20;99.90;;;;;;5051983;28;20202;-70
2023/07/03 09:56:23;;;;;;;5.85;4.93;;;37.30;99.90;;;;;;5055198;28;20226;-74
2023/07/03 09:58:52;;;;;;;8.48;5.85;;;37.90;99.90;;;;;;5056120;28;20323;-90
2023/07/03 10:01:21;;;;;;;5.72;4.97;;;34.00;99.90;;;;;;5051613;28;20245;-70
2023/07/03 10:04:01;;;;;;;6.55;5.15;;;29.90;99.90;;;;;;5058928;28;20245;-87
2023/07/03 10:06:29;;;;;;;8.18;5.30;;;34.00;99.90;;;;;;5052209;28;20210;-70
2023/07/03 10:09:00;;;;;;;6.97;4.80;;;36.50;99.90;;;;;;5055101;28;20197;-76
2023/07/03 10:11:33;;;;;;;5.15;4.65;;;36.90;99.90;;;;;;5054741;28;20202;-89
2023/07/03 10:14:00;;;;;;;5.30;4.43;;;39.30;99.90;;;;;;5060389;28;20268;-79
2023/07/03 10:16:28;;;;;;;5.95;4.68;;;35.90;99.90;;;;;;5066777;28;20332;-81
2023/07/03 10:18:59;;;;;;;5.30;4.53;;;31.50;99.90;;;;;;5068455;28;20275;-86
2023/07/03 10:21:26;;;;;;;6.32;4.97;;;29.70;99.90;;;;;;5063438;28;20287;-86
2023/07/03 10:23:54;;;;;;;4.93;3.95;;;32.50;99.90;;;;;;5062054;28;20240;-81
2023/07/03 10:26:25;;;;;;;4.65;4.25;;;29.20;99.90;;;;;;5065004;28;20210;-69
2023/07/03 10:28:57;;;;;;;4.25;3.85;;;27.60;99.90;;;;;;5052024;28;20241;-70
2023/07/03 10:31:31;;;;;;;6.70;4.28;;;27.50;99.90;;;;;;5050342;28;20198;-70
2023/07/03 10:34:06;;;;;;;6.18;4.75;;;27.00;99.90;;;;;;5054677;28;20591;-86
2023/07/03 10:36:36;;;;;;;8.05;5.40;;;26.90;99.90;;;;;;5051077;28;20234;-84
2023/07/03 10:39:10;;;;;;;5.60;5.10;;;27.20;99.90;;;;;;5056207;28;20303;-74
2023/07/03 10:41:42;;;;;;;6.15;5.60;;;26.80;99.90;;;;;;5055940;28;20213;-70
2023/07/03 10:44:15;;;;;;;5.22;4.68;;;27.10;99.90;;;;;;5050087;28;20293;-70
2023/07/03 10:46:47;;;;;;;5.00;4.45;;;26.40;99.90;;;;;;5050105;28;20700;-70
2023/07/03 10:49:26;;;;;;;8.35;4.82;;;26.00;99.90;;;;;;5053160;28;20235;-71
2023/07/03 10:52:03;;;;;;;7.30;5.22;;;26.10;99.90;;;;;;5058465;28;20230;-69
2023/07/03 10:54:34;;;;;;;6.72;4.43;;;26.30;99.90;;;;;;5050061;28;20309;-72
2023/07/03 10:57:04;;;;;;;6.45;3.90;;;26.00;99.90;;;;;;5050446;28;20254;-86
2023/07/03 10:59:34;;;;;;;5.28;4.25;;;25.60;99.90;;;;;;5050847;28;20254;-71
2023/07/03 11:02:14;;;;;;;7.03;4.60;;;25.50;99.90;;;;;;5050145;28;20225;-85
2023/07/03 11:04:51;;;;;;;5.22;3.95;;;25.60;99.90;;;;;;5052427;28;20217;-71
2023/07/03 11:07:27;;;;;;;8.05;4.57;;;25.70;99.90;;;;;;5049961;28;20302;-71
2023/07/03 11:10:00;;;;;;;6.50;4.47;;;25.40;99.90;;;;;;5053992;28;20198;-84
2023/07/03 11:12:36;;;;;;;7.90;4.40;;;25.40;99.90;;;;;;5050715;28;20605;-70
2023/07/03 11:15:18;;;;;;;6.15;3.53;;;25.20;99.90;;;;;;5049927;28;20241;-80
2023/07/03 11:17:56;;;;;;;5.43;4.15;;;25.40;99.90;;;;;;5050373;28;20222;-70
2023/07/03 11:20:30;;;;;;;5.93;4.25;;;25.20;99.90;;;;;;5051488;28;20206;-69
2023/07/03 11:23:08;;;;;;;5.40;4.22;;;25.40;99.90;;;;;;5059802;28;20198;-69
2023/07/03 11:25:45;;;;;;;7.53;3.80;;;25.30;99.90;;;;;;5061992;28;20259;-70
2023/07/03 11:28:20;;;;;;;4.75;4.18;;;25.20;99.90;;;;;;5062664;28;20297;-77
2023/07/03 11:30:49;;;;;;;5.82;4.18;;;25.40;99.90;;;;;;5054869;28;20238;-76
2023/07/03 11:33:16;;;;;;;4.88;4.07;;;25.30;99.90;;;;;;5051137;28;20253;-85
2023/07/03 11:35:53;;;;;;;6.78;4.38;;;25.20;99.90;;;;;;5052122;28;20256;-82
2023/07/03 11:38:21;;;;;;;5.78;4.40;;;25.10;99.90;;;;;;5049337;28;20270;-68
2023/07/03 11:41:08;;;;;;;4.68;4.18;;;25.10;99.90;;;;;;5068310;28;20234;-76
2023/07/03 11:43:42;;;;;;;4.28;3.65;;;25.50;99.90;;;;;;5061527;28;20697;-83
2023/07/03 11:46:12;;;;;;;3.63;3.22;;;25.50;99.90;;;;;;5049800;28;20238;-87
2023/07/03 11:48:49;;;;;;;3.65;3.30;;;25.30;99.90;;;;;;5051165;28;20234;-84
2023/07/03 11:51:30;;;;;;;4.72;3.33;;;25.60;99.90;;;;;;5059657;28;20260;-71
2023/07/03 11:53:58;;;;;;;4.10;3.58;;;25.60;99.90;;;;;;5052373;28;20207;-83
2023/07/03 11:56:45;;;;;;;4.75;3.30;;;25.70;99.90;;;;;;5051421;28;20219;-78
2023/07/03 11:59:23;;;;;;;6.88;3.80;;;25.20;99.90;;;;;;5049583;28;20245;-80
2023/07/03 12:01:50;;;;;;;4.82;3.90;;;25.20;99.90;;;;;;5052138;28;20215;-87
2023/07/03 12:04:50;;;;;;;4.10;3.60;;;25.40;99.90;;;;;;5057003;28;20202;-81
2023/07/03 12:07:51;;;;;;;3.50;3.00;;;25.70;99.90;;;;;;5057988;28;20231;-71
2023/07/03 12:10:57;;;;;;;3.88;3.47;;;25.70;99.90;;;;;;5056192;28;20210;-86
2023/07/03 12:13:37;;;;;;;4.05;3.65;;;25.90;99.90;;;;;;5055735;28;20729;-70
2023/07/03 12:16:06;;;;;;;4.63;3.88;;;25.80;99.90;;;;;;5056660;28;20288;-69
2023/07/03 12:18:34;;;;;;;4.38;3.17;;;26.00;99.90;;;;;;5057584;28;20277;-78
2023/07/03 12:21:04;;;;;;;4.60;3.47;;;25.90;99.90;;;;;;5058221;28;20702;-70
2023/07/03 12:23:35;;;;;;;4.03;3.63;;;26.00;99.90;;;;;;5059418;28;20777;-70
2023/07/03 12:26:02;;;;;;;3.83;3.40;;;26.00;99.90;;;;;;5062091;28;20260;-68
2023/07/03 12:28:29;;;;;;;4.10;2.88;;;25.90;99.90;;;;;;5058278;28;20242;-69
2023/07/03 12:31:10;;;;;;;6.93;4.00;;;25.70;99.90;;;;;;5059470;28;20286;-78
2023/07/03 12:33:37;;;;;;;3.78;3.10;;;25.90;99.90;;;;;;5054012;28;20261;-75
2023/07/03 12:36:05;;;;;;;4.28;3.22;;;25.90;99.90;;;;;;5065001;28;20238;-80
2023/07/03 12:38:34;;;;;;;4.57;3.55;;;25.90;99.90;;;;;;5065492;28;20270;-82
2023/07/03 12:41:01;;;;;;;5.07;3.33;;;25.90;99.90;;;;;;5053424;28;20213;-69
2023/07/03 12:43:28;;;;;;;3.65;3.15;;;25.90;99.90;;;;;;5052909;28;20218;-68
2023/07/03 12:45:56;;;;;;;4.78;3.65;;;25.70;99.90;;;;;;5051566;28;20293;-76
2023/07/03 12:48:23;;;;;;;3.53;2.85;;;25.80;99.90;;;;;;5051421;28;20207;-69
2023/07/03 12:50:52;;;;;;;4.40;3.50;;;26.00;99.90;;;;;;5052271;28;20260;-71
2023/07/03 12:53:20;;;;;;;6.28;3.33;;;26.20;99.90;;;;;;5060950;28;20212;-80
2023/07/03 12:55:51;;;;;;;3.47;2.55;;;26.20;99.90;;;;;;5065475;28;20732;-80